Milwaukee, WI (53219)

11:40 AM CDT on August 24, 2016 (GMT -0500)
Jans Embroidery | | Change Station

Elev 738 ft 43.00 °N, 88.00 °W | Updated 5 seconds ago

Mostly Cloudy
Mostly Cloudy
74.0 °F
Feels Like 77 °F
N
3.8
Wind Variable Wind from South
Gusts 3.8 mph

Today
High -- | Low -- °F
--% Chance of Precip.
Yesterday
High -- | Low -- °F
Precip. -- in
Pressure 29.91 in
Visibility 10.0 miles
Clouds Few 3500 ft
Few 14000 ft
Mostly Cloudy 19000 ft
Heat Index 77 °F
Dew Point 60 °F
Humidity 61%
Rainfall 0.00 in
Snow Depth Not available.
6:08 AM 7:39 PM
Waning Gibbous, 55% visible
METAR KMKE 241552Z 21011G17KT 10SM FEW035 FEW140 BKN190 26/21 A2992 RMK AO2 SLP127 T02560206
Pressure 29.91 in
Visibility 10.0 miles
Clouds Few 3500 ft
Few 14000 ft
Mostly Cloudy 19000 ft
Heat Index 77 °F
Dew Point 60 °F
Humidity 61%
Rainfall 0.00 in
Snow Depth Not available.
6:08 AM 7:39 PM
Waning Gibbous, 55% visible
METAR KMKE 241552Z 21011G17KT 10SM FEW035 FEW140 BKN190 26/21 A2992 RMK AO2 SLP127 T02560206

10-Day Weather Forecast

Almanac

Astronomy

Aug. 24, 2016 Rise Set
Actual Time
Civil Twilight
Nautical Twilight
Astronomical Twilight
Moon
Length of Visible Light
Length of Day
Tomorrow will be .
, % of the Moon is Illuminated

Today's Extremes

State Highs State Lows

Community

WunderPhotos

Upload Photos

1,934,649 photos uploaded!

WunderBlog® & News

Nearby

Air Quality

  Air Quality AQ Index Pollutant
Not available.

Snow Depth

Station Depth Elevation

Earthquake Activity

City Distance Mag. Time & Date
Minimum magnitude displayed is 2.5.

Coastal Water Temperatures

Place Temperature

Stations

Nearby Weather Stations

Station Location Temp. Windchill Dew Point Humidity Wind Precip. Elev Updated Type
                   

Watches & Warnings

There are currently no watches in effect.